Nearby METAR Reports

 

KHOB - Hobbs, New Mexico, USA
Distance from station: S 40mi, 65km
Updated: Tue, 14-Jul-2020 11:55pm MDT
Clear
Clear
 Wind from S
Wind: S 18 mph , 30 km/h, Gust: 26 mph , 43 km/h
Temperature: 91°F , 33°C
Dew Point: 37°F , 3°C
Humidity: 15%
Barometer: 29.95 inHg , 1014.2 hPa
Clouds: Clear
Visibility: 10 miles , 16 km
2020/07/15 05:55 KHOB 150555Z AUTO 17016G23KT 10SM CLR 33/03 A2995 RMK AO2
KGNC - Seminole, Texas, USA
Distance from station: SE 55mi, 89km
Updated: Tue, 14-Jul-2020 11:55pm MDT
Clear
Clear
 Wind from S
Wind: S 10 mph , 17 km/h
Temperature: 86°F , 30°C
Dew Point: 46°F , 8°C
Humidity: 25%
Barometer: 29.98 inHg , 1015.2 hPa
Clouds: Clear
Visibility: 10 miles , 16 km
2020/07/15 05:55 KGNC 150555Z AUTO 18009KT 10SM CLR 30/08 A2998 RMK AO2 T03000081 10369 20298 404330240
 
KROW - Roswell, New Mexico, USA
Distance from station: W 67mi, 108km
Updated: Tue, 14-Jul-2020 11:51pm MDT
Clear
Clear
 Wind from SW
Wind: SW 9 mph , 15 km/h
Temperature: 91°F , 33°C
Dew Point: 43°F , 6°C
Humidity: 18%
Barometer: 29.95 inHg , 1014.2 hPa
Clouds: Clear
Visibility: 10 miles , 16 km
2020/07/15 05:51 KROW 150551Z AUTO 23008KT 10SM CLR 33/06 A2995 RMK AO2 SLP054 T03330056 10411 20328 52020
KATS - Artesia, New Mexico, USA
Distance from station: WSW 71mi, 114km
Updated: Tue, 14-Jul-2020 11:55pm MDT
Clear
Clear
 Wind from SSW
Wind: SSW 12 mph , 19 km/h
Temperature: 91°F , 33°C
Dew Point: 50°F , 10°C
Humidity: 24%
Barometer: 29.96 inHg , 1014.6 hPa
Clouds: Clear
Visibility: 10 miles , 16 km
2020/07/15 05:55 KATS 150555Z AUTO 21010KT 10SM CLR 33/10 A2996 RMK AO2
 
KCVS - Cannon AFB,Clovis, New Mexico, USA
Distance from station: 0 78mi, 125km
Updated: Tue, 14-Jul-2020 11:58pm MDT
Mostly cloudy
Mostly cloudy
 Wind from WNW
Wind: WNW 3 mph , 6 km/h
Temperature: 90°F , 32°C
Dew Point: 45°F , 7°C
Humidity: 21%
Barometer: 30.00 inHg , 1015.9 hPa
Clouds: Mostly cloudy
Visibility: 10 miles , 16 km
Cloud details: Mostly cloudy 12000 ft
2020/07/15 05:58 KCVS 150558Z AUTO 29003KT 10SM BKN120 32/07 A3000 RMK AO2 SLP079 T03220071 10384 20299 52024 $
KE11 - Andrews, Texas, USA
Distance from station: SE 78mi, 126km
Updated: Tue, 14-Jul-2020 11:55pm MDT
Clear
Clear
 Wind from S
Wind: S 16 mph , 26 km/h, Gust: 22 mph , 35 km/h
Temperature: 88°F , 31°C
Dew Point: 45°F , 7°C
Humidity: 22%
Barometer: 29.95 inHg , 1014.2 hPa
Clouds: Clear
Visibility: 10 miles , 16 km
2020/07/15 05:55 KE11 150555Z AUTO 19014G19KT 10SM CLR 31/07 A2995 RMK AO2 T03120073 10361 20310
 
KCNM - Carlsbad, New Mexico, USA
Distance from station: SW 82mi, 132km
Updated: Tue, 14-Jul-2020 11:53pm MDT
Clear
Clear
 Wind from W
Wind: W 8 mph , 13 km/h
Temperature: 88°F , 31°C
Dew Point: 46°F , 8°C
Humidity: 24%
Barometer: 29.93 inHg , 1013.5 hPa
Clouds: Clear
Visibility: 10 miles , 16 km
2020/07/15 05:53 KCNM 150553Z AUTO 26007KT 10SM CLR 31/08 A2993 RMK AO2 SLP063 T03060083 10394 20306 51026
KCVN - Clovis Muni, New Mexico, USA
Distance from station: N 83mi, 133km
Updated: Tue, 14-Jul-2020 11:56pm MDT
Few Clouds
Few Clouds
 Wind from NW
Wind: NW 10 mph , 17 km/h, Gust: 26 mph , 43 km/h
Temperature: 93°F , 34°C
Dew Point: 43°F , 6°C
Humidity: 17%
Barometer: 29.99 inHg , 1015.6 hPa
Clouds: Few Clouds
Visibility: 10 miles , 16 km
Cloud details: Few Clouds 12000 ft
2020/07/15 05:56 KCVN 150556Z AUTO 32009G23KT 260V360 10SM FEW120 34/06 A2999 RMK AO2 SLP086 T03390061 10394 20278 51024
 
KLBB - Lubbock, Texas, USA
Distance from station: ENE 92mi, 149km
Updated: Tue, 14-Jul-2020 11:53pm MDT
Mostly cloudy
Mostly cloudy
 Wind from SW
Wind: SW 16 mph , 26 km/h, Gust: 25 mph , 41 km/h
Temperature: 93°F , 34°C
Dew Point: 45°F , 7°C
Humidity: 19%
Barometer: 29.92 inHg , 1013.2 hPa
Clouds: Mostly cloudy
Visibility: 10 miles , 16 km
Cloud details: Few Clouds 10000 ft
Mostly cloudy 15000 ft
2020/07/15 05:53 KLBB 150553Z 23014G22KT 10SM FEW100 BKN150 34/07 A2992 RMK AO2 PK WND 20028/0527 SLP060 60000 T03390072 10433 20333 404390300 53028
KINK - Wink, Texas, USA
Distance from station: S 101mi, 163km
Updated: Tue, 14-Jul-2020 11:53pm MDT
Clear
Clear
 Wind from SE
Wind: SE 10 mph , 17 km/h
Temperature: 90°F , 32°C
Dew Point: 45°F , 7°C
Humidity: 21%
Barometer: 29.91 inHg , 1012.9 hPa
Clouds: Clear
Visibility: 10 miles , 16 km
2020/07/15 05:53 KINK 150553Z AUTO 13009KT 10SM CLR 32/07 A2991 RMK AO2 SLP068 T03170067 10433 20317 404440256 51018
 
KMAF - Midland, Texas, USA
Distance from station: SE 111mi, 179km
Updated: Tue, 14-Jul-2020 11:53pm MDT
Clear
Clear
 Wind from S
Wind: S 17 mph , 28 km/h
Temperature: 90°F , 32°C
Dew Point: 45°F , 7°C
Humidity: 21%
Barometer: 29.93 inHg , 1013.5 hPa
Clouds: Clear
Visibility: 10 miles , 16 km
2020/07/15 05:53 KMAF 150553Z AUTO 18015KT 10SM CLR 32/07 A2993 RMK AO2 SLP074 T03220072 10417 20322 404390294 53013 $
KSRR - Sierra B/Ruidoso, New Mexico, USA
Distance from station: W 127mi, 204km
Updated: Tue, 14-Jul-2020 11:55pm MDT
Clear
Clear
 Wind from N
Wind: N 6 mph , 9 km/h
Temperature: 73°F , 23°C
Dew Point: 37°F , 3°C
Humidity: 27%
Barometer: 30.26 inHg , 1024.7 hPa
Clouds: Clear
Visibility: 10 miles , 16 km
2020/07/15 05:55 KSRR 150555Z AUTO 35005KT 10SM CLR 23/03 A3026 RMK AO2
 
KGDP - Guadalupe Pass, Texas, USA
Distance from station: SW 130mi, 209km
Updated: Tue, 14-Jul-2020 11:51pm MDT
Clear
Clear
 Wind from W
Wind: W 13 mph , 20 km/h, Gust: 24 mph , 39 km/h
Temperature: 84°F , 29°C
Dew Point: 43°F , 6°C
Humidity: 23%
Clouds: Clear
Visibility: 10 miles , 16 km
2020/07/15 05:51 KGDP 150551Z AUTO 28011G21KT 10SM CLR 29/06 RMK AO2 SLPNO 60000 T02940056 10317 20278 $